createdAt,value
2023-11-13T00:02:24.291Z,100421.78
2023-11-13T00:04:52.019Z,100417.41
2023-11-13T00:07:18.923Z,100412.09
2023-11-13T00:09:45.810Z,100417.41
2023-11-13T00:12:12.745Z,100423.53
2023-11-13T00:14:39.627Z,100421.75
2023-11-13T00:17:06.632Z,100410.31
2023-11-13T00:19:33.473Z,100397.16
2023-11-13T00:22:00.307Z,100408.56
2023-11-13T00:24:27.144Z,100396.22
2023-11-13T00:26:53.988Z,100399.75
2023-11-13T00:29:21.643Z,100398.00
2023-11-13T00:31:48.459Z,100403.28
2023-11-13T00:34:15.314Z,100390.94
2023-11-13T00:36:42.184Z,100390.91
2023-11-13T00:39:11.314Z,100391.78
2023-11-13T00:41:42.029Z,100403.19
2023-11-13T00:44:09.088Z,100420.81
2023-11-13T00:46:36.134Z,100408.47
2023-11-13T00:49:03.210Z,100403.19
2023-11-13T00:51:30.427Z,100388.25
2023-11-13T00:53:57.881Z,100382.97
2023-11-13T00:56:24.751Z,100377.69
2023-11-13T00:58:51.624Z,100386.47
2023-11-13T01:01:18.654Z,100382.09
2023-11-13T01:03:45.667Z,100379.44
2023-11-13T01:06:21.807Z,100384.69
2023-11-13T01:08:48.689Z,100388.19
2023-11-13T01:11:16.019Z,100403.16
2023-11-13T01:13:45.546Z,100402.22
2023-11-13T01:16:12.546Z,100421.56
2023-11-13T01:18:39.532Z,100420.66
2023-11-13T01:21:06.462Z,100422.44
2023-11-13T01:23:33.299Z,100416.25
2023-11-13T01:26:00.187Z,100410.97
2023-11-13T01:28:27.119Z,100403.06
2023-11-13T01:30:54.383Z,100403.03
2023-11-13T01:33:22.953Z,100395.13
2023-11-13T01:35:50.107Z,100391.56
2023-11-13T01:38:36.796Z,100396.00
2023-11-13T01:41:03.616Z,100388.94
2023-11-13T01:43:30.410Z,100387.19
2023-11-13T01:45:59.649Z,100403.00
2023-11-13T01:48:28.077Z,100400.34
2023-11-13T01:50:55.197Z,100394.19
2023-11-13T01:53:26.779Z,100395.09
2023-11-13T01:55:57.110Z,100384.50
2023-11-13T01:58:24.830Z,100366.91
2023-11-13T02:00:51.978Z,100370.44
2023-11-13T02:03:20.307Z,100374.81
2023-11-13T02:05:48.300Z,100376.56
2023-11-13T02:08:15.175Z,100379.19
2023-11-13T02:10:43.003Z,100380.06
2023-11-13T02:13:12.941Z,100379.16
2023-11-13T02:15:41.692Z,100387.03
2023-11-13T02:18:08.850Z,100398.47
2023-11-13T02:20:36.068Z,100383.50
2023-11-13T02:23:03.449Z,100387.88
2023-11-13T02:25:37.869Z,100379.97
2023-11-13T02:28:06.305Z,100385.22
2023-11-13T02:30:40.825Z,100379.03
2023-11-13T02:33:07.845Z,100379.03
2023-11-13T02:35:34.845Z,100381.66
2023-11-13T02:38:01.724Z,100373.75
2023-11-13T02:40:28.905Z,100369.34
2023-11-13T02:42:55.968Z,100359.66
2023-11-13T02:45:27.126Z,100362.28
2023-11-13T02:47:54.948Z,100347.38
2023-11-13T02:50:22.460Z,100352.63
2023-11-13T02:52:49.797Z,100357.00
2023-11-13T02:55:17.283Z,100346.47
2023-11-13T02:57:44.139Z,100342.94
2023-11-13T03:00:11.985Z,100347.31
2023-11-13T03:02:39.205Z,100351.69
2023-11-13T03:05:06.957Z,100343.78
2023-11-13T03:07:33.844Z,100351.75
2023-11-13T03:10:04.519Z,100348.22
2023-11-13T03:12:31.416Z,100338.56
2023-11-13T03:14:58.480Z,100348.22
2023-11-13T03:17:25.372Z,100343.81
2023-11-13T03:19:52.206Z,100336.81
2023-11-13T03:22:19.125Z,100345.63
2023-11-13T03:24:47.710Z,100343.84
2023-11-13T03:27:14.781Z,100355.31
2023-11-13T03:29:41.667Z,100351.81
2023-11-13T03:32:10.321Z,100348.28
2023-11-13T03:34:37.608Z,100355.28
2023-11-13T03:37:04.864Z,100366.72
2023-11-13T03:39:31.737Z,100363.22
2023-11-13T03:41:58.644Z,100366.72
2023-11-13T03:44:25.454Z,100361.47
2023-11-13T03:46:52.989Z,100363.22
2023-11-13T03:49:20.115Z,100372.91
2023-11-13T03:51:47.753Z,100366.75
2023-11-13T03:54:14.657Z,100372.00
2023-11-13T03:56:41.504Z,100372.91
2023-11-13T03:59:08.389Z,100365.84
2023-11-13T04:01:35.299Z,100358.81
2023-11-13T04:04:02.613Z,100358.81
2023-11-13T04:06:29.603Z,100353.50
2023-11-13T04:08:56.640Z,100360.56
2023-11-13T04:11:23.481Z,100359.66
2023-11-13T04:13:50.313Z,100361.41
2023-11-13T04:16:17.269Z,100374.56
2023-11-13T04:18:44.130Z,100378.94
2023-11-13T04:21:10.950Z,100378.03
2023-11-13T04:23:38.359Z,100379.81
2023-11-13T04:26:05.562Z,100378.00
2023-11-13T04:28:36.476Z,100376.25
2023-11-13T04:31:05.311Z,100364.81
2023-11-13T04:33:32.208Z,100350.72
2023-11-13T04:36:02.503Z,100351.59
2023-11-13T04:38:29.744Z,100350.69
2023-11-13T04:40:56.637Z,100334.03
2023-11-13T04:43:23.626Z,100335.75
2023-11-13T04:45:51.150Z,100321.69
2023-11-13T04:48:18.042Z,100319.94
2023-11-13T04:50:44.853Z,100322.53
2023-11-13T04:53:11.669Z,100320.78
2023-11-13T04:55:38.575Z,100321.63
2023-11-13T04:58:05.428Z,100325.13
2023-11-13T05:00:32.303Z,100328.63
2023-11-13T05:02:59.121Z,100332.16
2023-11-13T05:05:30.402Z,100331.25
2023-11-13T05:07:57.259Z,100328.63
2023-11-13T05:10:24.124Z,100336.53
2023-11-13T05:12:51.185Z,100332.13
2023-11-13T05:15:18.102Z,100333.88
2023-11-13T05:17:44.936Z,100334.75
2023-11-13T05:20:12.012Z,100333.88
2023-11-13T05:22:39.146Z,100328.59
2023-11-13T05:25:06.484Z,100327.69
2023-11-13T05:27:33.403Z,100331.19
2023-11-13T05:30:00.475Z,100329.44
2023-11-13T05:32:27.486Z,100329.38
2023-11-13T05:34:54.395Z,100328.50
2023-11-13T05:37:21.264Z,100339.91
2023-11-13T05:39:48.119Z,100326.72
2023-11-13T05:42:14.971Z,100331.09
2023-11-13T05:44:41.800Z,100324.06
2023-11-13T05:47:10.137Z,100317.06
2023-11-13T05:49:37.699Z,100307.38
2023-11-13T05:52:04.975Z,100309.16
2023-11-13T05:54:31.782Z,100297.72
2023-11-13T05:56:58.628Z,100293.38
2023-11-13T05:59:25.488Z,100296.00
2023-11-13T06:01:52.358Z,100288.94
2023-11-13T06:04:19.528Z,100281.06
2023-11-13T06:06:48.056Z,100273.16
2023-11-13T06:09:15.081Z,100276.69
2023-11-13T06:11:42.025Z,100281.06
2023-11-13T06:14:09.073Z,100268.78
2023-11-13T06:16:36.131Z,100279.31
2023-11-13T06:19:03.800Z,100270.53
2023-11-13T06:21:30.710Z,100268.78
2023-11-13T06:23:57.520Z,100268.78
2023-11-13T06:26:24.331Z,100272.31
2023-11-13T06:28:51.993Z,100267.03
2023-11-13T06:31:24.972Z,100261.75
2023-11-13T06:33:54.150Z,100275.78
2023-11-13T06:36:21.036Z,100269.66
2023-11-13T06:38:48.798Z,100280.19
2023-11-13T06:41:15.882Z,100277.56
2023-11-13T06:43:43.070Z,100279.34
2023-11-13T06:46:10.224Z,100267.94
2023-11-13T06:48:38.405Z,100275.84
2023-11-13T06:51:09.738Z,100269.69
2023-11-13T06:53:37.563Z,100267.94
2023-11-13T06:56:05.090Z,100266.19
2023-11-13T06:58:35.381Z,100253.91
2023-11-13T07:01:05.283Z,100257.41
2023-11-13T07:03:32.348Z,100258.28
2023-11-13T07:06:00.105Z,100249.53
2023-11-13T07:08:27.849Z,100250.38
2023-11-13T07:10:55.303Z,100249.53
2023-11-13T07:13:22.154Z,100248.69
2023-11-13T07:15:49.111Z,100239.91
2023-11-13T07:18:18.365Z,100239.97
2023-11-13T07:20:47.145Z,100236.44
2023-11-13T07:23:18.512Z,100236.47
2023-11-13T07:25:46.674Z,100233.88
2023-11-13T07:28:16.543Z,100237.38
2023-11-13T07:30:43.875Z,100223.34
2023-11-13T07:33:10.838Z,100226.00
2023-11-13T07:35:39.314Z,100222.50
2023-11-13T07:38:08.790Z,100227.81
2023-11-13T07:40:37.140Z,100236.59
2023-11-13T07:43:04.608Z,100231.34
2023-11-13T07:45:33.092Z,100236.63
2023-11-13T07:47:59.937Z,100249.81
2023-11-13T07:50:29.237Z,100242.81
2023-11-13T07:52:56.120Z,100248.09
2023-11-13T07:55:24.070Z,100255.13
2023-11-13T07:57:52.149Z,100239.34
2023-11-13T08:00:24.721Z,100235.88
2023-11-13T08:02:52.209Z,100234.13
2023-11-13T08:05:23.083Z,100225.38
2023-11-13T08:07:51.288Z,100227.13
2023-11-13T08:10:18.355Z,100219.25
2023-11-13T08:12:50.791Z,100208.72
2023-11-13T08:15:18.132Z,100202.59
2023-11-13T08:17:47.070Z,100191.16
2023-11-13T08:20:16.069Z,100184.16
2023-11-13T08:22:48.229Z,100176.25
2023-11-13T08:25:17.093Z,100163.06
2023-11-13T08:27:44.836Z,100156.03
2023-11-13T08:30:15.415Z,100160.44
2023-11-13T08:32:43.452Z,100149.88
2023-11-13T08:35:14.856Z,100155.19
2023-11-13T08:37:47.548Z,100153.41
2023-11-13T08:40:24.690Z,100149.00
2023-11-13T08:42:54.849Z,100135.84
2023-11-13T08:45:22.205Z,100133.19
2023-11-13T08:47:52.359Z,100124.41
2023-11-13T08:50:22.288Z,100119.16
2023-11-13T08:52:50.734Z,100117.38
2023-11-13T08:55:18.796Z,100120.03
2023-11-13T08:57:48.703Z,100122.66
2023-11-13T09:00:22.334Z,100116.50
2023-11-13T09:02:50.794Z,100112.97
2023-11-13T09:05:20.190Z,100111.19
2023-11-13T09:07:48.150Z,100112.09
2023-11-13T09:10:17.474Z,100110.31
2023-11-13T09:12:45.177Z,100097.13
2023-11-13T09:15:15.640Z,100090.94
2023-11-13T09:17:46.867Z,100081.22
2023-11-13T09:20:20.702Z,100075.06
2023-11-13T09:22:52.168Z,100072.38
2023-11-13T09:25:20.270Z,100067.94
2023-11-13T09:27:49.616Z,100082.88
2023-11-13T09:30:19.558Z,100074.03
2023-11-13T09:32:49.348Z,100083.69
2023-11-13T09:35:25.450Z,100069.56
2023-11-13T09:37:54.981Z,100058.97
2023-11-13T09:40:25.156Z,100056.28
2023-11-13T09:43:36.308Z,100037.75
2023-11-13T09:46:07.756Z,100043.91
2023-11-13T09:48:47.517Z,100050.91
2023-11-13T09:51:29.682Z,100050.00
2023-11-13T09:53:59.873Z,100063.16
2023-11-13T09:56:31.766Z,100054.31
2023-11-13T09:59:00.742Z,100059.56
2023-11-13T10:01:28.329Z,100066.56
2023-11-13T10:03:55.284Z,100068.28
2023-11-13T10:06:23.793Z,100067.34
2023-11-13T10:08:52.470Z,100052.31
2023-11-13T10:11:21.752Z,100041.69
2023-11-13T10:13:49.176Z,100034.53
2023-11-13T10:16:21.840Z,100034.50
2023-11-13T10:18:52.232Z,100020.34
2023-11-13T10:21:34.562Z,100019.44
2023-11-13T10:24:33.962Z,100015.91
2023-11-13T10:27:13.563Z,100016.78
2023-11-13T10:29:40.621Z,100007.03
2023-11-13T10:32:08.211Z,100002.63
2023-11-13T10:34:46.549Z,99997.31
2023-11-13T10:37:17.204Z,99986.75
2023-11-13T10:39:44.990Z,99992.91
2023-11-13T10:42:26.408Z,99992.91
2023-11-13T10:44:57.308Z,99992.94
2023-11-13T10:47:32.086Z,99985.88
2023-11-13T10:50:01.256Z,99974.44
2023-11-13T10:52:30.455Z,99973.53
2023-11-13T10:55:02.727Z,99973.53
2023-11-13T10:57:30.026Z,99978.00
2023-11-13T10:59:57.359Z,99966.56
2023-11-13T11:02:36.265Z,99962.16
2023-11-13T11:05:12.332Z,99949.84
2023-11-13T11:07:40.006Z,99947.22
2023-11-13T11:10:08.995Z,99944.59
2023-11-13T11:13:01.445Z,99933.16
2023-11-13T11:15:53.964Z,99912.91
2023-11-13T11:19:01.235Z,99908.59
2023-11-13T11:21:47.191Z,99898.94
2023-11-13T11:24:45.555Z,99897.22
2023-11-13T11:27:42.074Z,99893.69
2023-11-13T11:30:24.121Z,99888.44
2023-11-13T11:32:56.331Z,99890.22
2023-11-13T11:35:25.941Z,99884.09
2023-11-13T11:38:28.457Z,99879.72
2023-11-13T11:40:59.681Z,99868.31
2023-11-13T11:43:33.256Z,99862.97
2023-11-13T11:46:00.374Z,99855.09
2023-11-13T11:48:28.466Z,99841.88
2023-11-13T11:51:04.653Z,99842.72
2023-11-13T11:53:31.615Z,99837.41
2023-11-13T11:55:59.664Z,99826.84
2023-11-13T11:58:28.783Z,99816.25
2023-11-13T12:00:56.804Z,99798.63
2023-11-13T12:03:25.988Z,99801.28
2023-11-13T12:05:52.924Z,99798.63
2023-11-13T12:08:19.842Z,99784.50
2023-11-13T12:10:46.973Z,99779.22
2023-11-13T12:13:14.002Z,99785.41
2023-11-13T12:15:43.202Z,99776.59
2023-11-13T12:18:10.121Z,99776.59
2023-11-13T12:20:37.012Z,99762.50
2023-11-13T12:23:04.016Z,99758.06
2023-11-13T12:25:33.274Z,99761.59
2023-11-13T12:28:00.189Z,99748.38
2023-11-13T12:30:27.948Z,99739.56
2023-11-13T12:32:56.296Z,99723.72
2023-11-13T12:35:23.533Z,99717.53
2023-11-13T12:37:52.204Z,99708.72
2023-11-13T12:40:21.324Z,99699.00
2023-11-13T12:42:48.628Z,99695.44
2023-11-13T12:45:18.425Z,99687.47
2023-11-13T12:47:51.620Z,99673.31
2023-11-13T12:50:22.585Z,99658.31
2023-11-13T12:52:55.631Z,99645.06
2023-11-13T12:55:24.502Z,99649.41
2023-11-13T12:57:54.974Z,99634.41
2023-11-13T13:00:22.133Z,99637.88
2023-11-13T13:02:54.839Z,99643.09
2023-11-13T13:05:31.161Z,99646.59
2023-11-13T13:08:02.849Z,99643.03
2023-11-13T13:10:33.962Z,99628.03
2023-11-13T13:13:02.225Z,99622.78
2023-11-13T13:15:29.605Z,99608.69
2023-11-13T13:17:59.205Z,99605.09
2023-11-13T13:20:33.816Z,99596.28
2023-11-13T13:23:01.539Z,99590.97
2023-11-13T13:25:36.677Z,99583.03
2023-11-13T13:28:05.986Z,99565.41
2023-11-13T13:30:34.967Z,99572.47
2023-11-13T13:33:11.317Z,99568.03
2023-11-13T13:35:39.827Z,99553.06
2023-11-13T13:38:07.361Z,99532.78
2023-11-13T13:40:37.615Z,99532.78
2023-11-13T13:43:04.482Z,99536.34
2023-11-13T13:45:31.462Z,99535.47
2023-11-13T13:47:58.586Z,99526.63
2023-11-13T13:50:26.080Z,99526.63
2023-11-13T13:52:57.213Z,99505.47
2023-11-13T13:55:28.392Z,99493.16
2023-11-13T13:57:57.961Z,99482.56
2023-11-13T14:00:34.056Z,99479.00
2023-11-13T14:03:11.487Z,99470.22
2023-11-13T14:05:42.803Z,99456.94
2023-11-13T14:08:15.589Z,99445.47
2023-11-13T14:10:44.428Z,99420.75
2023-11-13T14:13:14.488Z,99417.25
2023-11-13T14:15:54.670Z,99403.13
2023-11-13T14:18:32.830Z,99380.22
2023-11-13T14:21:01.745Z,99355.59
2023-11-13T14:23:29.424Z,99326.47
2023-11-13T14:25:56.753Z,99317.69
2023-11-13T14:28:24.241Z,99318.56
2023-11-13T14:30:51.382Z,99315.03
2023-11-13T14:33:19.730Z,99302.69
2023-11-13T14:35:46.986Z,99301.81
2023-11-13T14:38:14.489Z,99289.44
2023-11-13T14:40:41.746Z,99285.06
2023-11-13T14:43:08.746Z,99284.19
2023-11-13T14:45:35.602Z,99279.75
2023-11-13T14:48:03.027Z,99255.06
2023-11-13T14:50:32.274Z,99234.78
2023-11-13T14:52:59.344Z,99231.25
2023-11-13T14:55:27.601Z,99248.84
2023-11-13T14:57:55.245Z,99247.94
2023-11-13T15:00:24.434Z,99256.75
2023-11-13T15:02:53.722Z,99275.28
2023-11-13T15:05:22.127Z,99254.09
2023-11-13T15:07:50.055Z,99225.81
2023-11-13T15:10:18.812Z,99201.13
2023-11-13T15:12:47.355Z,99206.47
2023-11-13T15:15:20.772Z,99193.16
2023-11-13T15:17:48.637Z,99170.25
2023-11-13T15:20:19.419Z,99145.53
2023-11-13T15:23:08.772Z,99132.28
2023-11-13T15:25:39.594Z,99123.47
2023-11-13T15:28:07.347Z,99134.03
2023-11-13T15:30:34.173Z,99141.91
2023-11-13T15:33:04.953Z,99141.88
2023-11-13T15:35:32.153Z,99133.00
2023-11-13T15:37:59.117Z,99123.25
2023-11-13T15:40:26.045Z,99113.56
2023-11-13T15:42:52.943Z,99121.41
2023-11-13T15:45:20.038Z,99124.91
2023-11-13T15:47:47.036Z,99113.34
2023-11-13T15:50:17.854Z,99115.94
2023-11-13T15:52:45.273Z,99122.97
2023-11-13T15:55:12.868Z,99115.84
2023-11-13T15:57:40.884Z,99116.69
2023-11-13T16:00:13.889Z,99094.53
2023-11-13T16:02:41.537Z,99077.72
2023-11-13T16:05:10.411Z,99074.13
2023-11-13T16:07:37.827Z,99077.63
2023-11-13T16:10:05.538Z,99082.81
2023-11-13T16:12:32.538Z,99091.59
2023-11-13T16:15:00.289Z,99102.97
2023-11-13T16:17:30.615Z,99085.22
2023-11-13T16:19:57.664Z,99092.28
2023-11-13T16:22:24.702Z,99064.81
2023-11-13T16:24:51.589Z,99068.25
2023-11-13T16:27:18.525Z,99055.88
2023-11-13T16:29:45.321Z,99049.66
2023-11-13T16:32:13.238Z,99045.19
2023-11-13T16:34:40.402Z,99049.53
2023-11-13T16:37:09.554Z,99039.81
2023-11-13T16:39:36.581Z,99043.28
2023-11-13T16:42:04.524Z,99032.66
2023-11-13T16:44:31.378Z,99028.16
2023-11-13T16:46:59.422Z,99035.22
2023-11-13T16:49:26.273Z,99005.16
2023-11-13T16:51:53.120Z,99022.81
2023-11-13T16:54:23.395Z,99005.06
2023-11-13T16:56:51.387Z,98982.94
2023-11-13T16:59:19.325Z,98968.75
2023-11-13T17:01:48.467Z,98957.31
2023-11-13T17:04:15.346Z,98964.34
2023-11-13T17:06:42.630Z,98975.81
2023-11-13T17:09:09.667Z,99000.47
2023-11-13T17:11:36.538Z,99015.47
2023-11-13T17:14:03.421Z,99034.81
2023-11-13T17:16:30.314Z,99035.66
2023-11-13T17:18:57.384Z,99025.84
2023-11-13T17:21:24.376Z,99001.94
2023-11-13T17:23:51.572Z,99006.28
2023-11-13T17:26:18.766Z,99014.13
2023-11-13T17:28:46.428Z,99023.78
2023-11-13T17:31:13.327Z,99030.81
2023-11-13T17:33:41.083Z,99046.63
2023-11-13T17:36:08.643Z,99027.13
2023-11-13T17:38:35.605Z,99024.44
2023-11-13T17:41:02.783Z,99019.03
2023-11-13T17:43:29.816Z,99006.63
2023-11-13T17:45:58.923Z,99009.16
2023-11-13T17:48:26.342Z,99009.16
2023-11-13T17:50:53.462Z,99027.63
2023-11-13T17:53:21.265Z,99027.63
2023-11-13T17:55:48.197Z,99029.34
2023-11-13T17:58:15.139Z,99032.91
2023-11-13T18:00:42.030Z,99029.41
2023-11-13T18:03:09.027Z,99032.91
2023-11-13T18:05:37.751Z,99027.59
2023-11-13T18:08:05.067Z,99032.00
2023-11-13T18:10:32.071Z,99036.41
2023-11-13T18:12:58.942Z,99029.25
2023-11-13T18:15:26.122Z,99032.84
2023-11-13T18:17:53.556Z,99029.25
2023-11-13T18:20:20.649Z,99035.41
2023-11-13T18:22:50.688Z,99029.19
2023-11-13T18:25:17.736Z,99031.72
2023-11-13T18:27:46.257Z,99032.50
2023-11-13T18:30:14.474Z,99031.50
2023-11-13T18:32:42.460Z,99030.56
2023-11-13T18:35:10.241Z,99030.44
2023-11-13T18:37:40.398Z,99034.72
2023-11-13T18:40:09.734Z,99042.50
2023-11-13T18:42:37.530Z,99051.22
2023-11-13T18:45:06.187Z,99052.88
2023-11-13T18:47:34.086Z,99057.97
2023-11-13T18:50:01.375Z,99049.81
2023-11-13T18:52:28.685Z,99057.59
2023-11-13T18:54:56.433Z,99045.97
2023-11-13T18:57:23.811Z,99043.13
2023-11-13T18:59:50.954Z,99041.16
2023-11-13T19:02:17.976Z,99050.84
2023-11-13T19:04:45.292Z,99062.09
2023-11-13T19:07:13.780Z,99065.59
2023-11-13T19:09:41.187Z,99068.97
2023-11-13T19:12:10.587Z,99087.28
2023-11-13T19:14:38.307Z,99070.28
2023-11-13T19:17:07.031Z,99084.28
2023-11-13T19:19:34.212Z,99091.22
2023-11-13T19:22:02.250Z,99087.53
2023-11-13T19:24:30.536Z,99101.63
2023-11-13T19:26:57.368Z,99086.53
2023-11-13T19:29:24.239Z,99099.69
2023-11-13T19:31:51.991Z,99090.81
2023-11-13T19:34:19.147Z,99090.81
2023-11-13T19:36:47.295Z,99090.81
2023-11-13T19:39:14.579Z,99087.22
2023-11-13T19:41:42.602Z,99083.72
2023-11-13T19:44:09.543Z,99081.97
2023-11-13T19:46:37.330Z,99086.41
2023-11-13T19:49:08.749Z,99082.88
2023-11-13T19:51:35.716Z,99092.66
2023-11-13T19:54:02.522Z,99110.41
2023-11-13T19:56:29.465Z,99105.97
2023-11-13T19:58:56.582Z,99119.25
2023-11-13T20:01:23.791Z,99102.50
2023-11-13T20:03:52.916Z,99122.88
2023-11-13T20:06:19.899Z,99121.16
2023-11-13T20:08:50.030Z,99118.53
2023-11-13T20:11:20.437Z,99124.84
2023-11-13T20:13:47.572Z,99116.03
2023-11-13T20:16:14.620Z,99136.41
2023-11-13T20:18:41.512Z,99143.50
2023-11-13T20:21:10.566Z,99134.72
2023-11-13T20:23:38.557Z,99149.72
2023-11-13T20:26:07.055Z,99147.19
2023-11-13T20:28:34.881Z,99149.81
2023-11-13T20:31:02.306Z,99160.44
2023-11-13T20:33:29.505Z,99158.72
2023-11-13T20:35:56.931Z,99158.72
2023-11-13T20:38:24.009Z,99157.00
2023-11-13T20:40:52.502Z,99156.13
2023-11-13T20:43:20.407Z,99171.19
2023-11-13T20:45:48.130Z,99165.88
2023-11-13T20:48:15.118Z,99165.88
2023-11-13T20:50:42.004Z,99172.13
2023-11-13T20:53:09.947Z,99182.75
2023-11-13T20:55:36.879Z,99187.19
2023-11-13T20:58:06.641Z,99180.16
2023-11-13T21:00:33.469Z,99199.66
2023-11-13T21:03:00.384Z,99203.22
2023-11-13T21:05:27.249Z,99201.47
2023-11-13T21:07:54.733Z,99192.59
2023-11-13T21:10:21.844Z,99197.91
2023-11-13T21:12:48.850Z,99199.66
2023-11-13T21:15:15.737Z,99206.72
2023-11-13T21:17:45.024Z,99205.72
2023-11-13T21:20:12.621Z,99213.66
2023-11-13T21:22:41.521Z,99216.25
2023-11-13T21:25:11.743Z,99218.88
2023-11-13T21:27:39.615Z,99220.50
2023-11-13T21:30:08.956Z,99215.13
2023-11-13T21:32:35.954Z,99224.72
2023-11-13T21:35:04.932Z,99226.41
2023-11-13T21:37:32.201Z,99218.31
2023-11-13T21:39:59.343Z,99220.91
2023-11-13T21:42:26.792Z,99215.47
2023-11-13T21:44:54.148Z,99233.06
2023-11-13T21:47:21.284Z,99228.59
2023-11-13T21:49:48.249Z,99215.31
2023-11-13T21:52:15.776Z,99221.47
2023-11-13T21:54:43.554Z,99237.34
2023-11-13T21:57:11.737Z,99230.25
2023-11-13T21:59:42.118Z,99244.44
2023-11-13T22:02:10.165Z,99237.44
2023-11-13T22:04:37.328Z,99242.72
2023-11-13T22:07:04.460Z,99240.06
2023-11-13T22:09:32.699Z,99236.56
2023-11-13T22:11:59.508Z,99247.09
2023-11-13T22:14:26.391Z,99243.53
2023-11-13T22:17:00.180Z,99238.13
2023-11-13T22:19:28.422Z,99249.56
2023-11-13T22:21:55.628Z,99242.44
2023-11-13T22:24:24.565Z,99245.09
2023-11-13T22:26:51.400Z,99247.75
2023-11-13T22:29:18.244Z,99240.69
2023-11-13T22:31:45.097Z,99245.94
2023-11-13T22:34:12.116Z,99247.75
2023-11-13T22:36:41.320Z,99251.31
2023-11-13T22:39:08.501Z,99251.31
2023-11-13T22:41:35.355Z,99253.91
2023-11-13T22:44:02.256Z,99257.44
2023-11-13T22:46:29.362Z,99258.38
2023-11-13T22:48:56.940Z,99260.19
2023-11-13T22:51:23.949Z,99256.72
2023-11-13T22:53:50.793Z,99257.66
2023-11-13T22:56:17.658Z,99268.31
2023-11-13T22:58:48.169Z,99260.38
2023-11-13T23:01:15.030Z,99272.75
2023-11-13T23:03:43.741Z,99262.09
2023-11-13T23:06:10.626Z,99259.44
2023-11-13T23:08:37.636Z,99253.25
2023-11-13T23:11:05.018Z,99259.44
2023-11-13T23:13:31.907Z,99266.53
2023-11-13T23:15:58.732Z,99253.38
2023-11-13T23:18:25.614Z,99255.19
2023-11-13T23:20:52.457Z,99258.75
2023-11-13T23:23:19.397Z,99257.00
2023-11-13T23:25:49.348Z,99257.94
2023-11-13T23:28:17.320Z,99265.03
2023-11-13T23:30:44.671Z,99257.13
2023-11-13T23:33:12.877Z,99267.75
2023-11-13T23:35:39.787Z,99254.41
2023-11-13T23:38:06.731Z,99256.25
2023-11-13T23:40:34.648Z,99260.69
2023-11-13T23:43:02.397Z,99264.28
2023-11-13T23:45:30.235Z,99262.53
2023-11-13T23:47:57.959Z,99253.69
2023-11-13T23:50:24.926Z,99259.03
2023-11-13T23:52:51.747Z,99257.31
2023-11-13T23:55:18.694Z,99253.84
2023-11-13T23:57:45.506Z,99253.84
